Time;durP1;ratioP1;P1;durP2;ratioP2;P2;SDS_P1;SDS_P2;PMS_P1;PMS_P2;Temp;Humidity;BMP_temperature;BMP_pressure;BME280_temperature;BME280_humidity;BME280_pressure;Samples;Min_cycle;Max_cycle;Signal;HPM_P1;HPM_P2
2022/11/27 00:01:23;;;;;;;15.27;11.38;;;;;;;-5.45;89.21;101293.38;5043625;28;20037;-64
2022/11/27 00:03:49;;;;;;;16.95;12.23;;;;;;;-5.47;89.57;101297.41;5041291;28;20074;-63
2022/11/27 00:06:18;;;;;;;14.52;11.70;;;;;;;-5.44;88.85;101297.66;5028500;28;20044;-64
2022/11/27 00:08:45;;;;;;;15.02;11.02;;;;;;;-5.64;89.51;101298.78;5023754;28;20329;-64
2022/11/27 00:11:16;;;;;;;15.93;11.52;;;;;;;-5.49;88.35;101301.50;5023419;28;20090;-65
2022/11/27 00:13:41;;;;;;;16.20;11.55;;;;;;;-5.36;89.50;101299.03;5025908;28;20061;-64
2022/11/27 00:16:08;;;;;;;15.52;11.65;;;;;;;-5.19;88.41;101300.19;5043494;28;20036;-64
2022/11/27 00:18:34;;;;;;;16.38;10.93;;;;;;;-5.33;87.96;101303.44;5043389;28;20304;-64
2022/11/27 00:21:10;;;;;;;14.52;10.90;;;;;;;-5.44;88.98;101307.75;5030355;28;20029;-64
2022/11/27 00:23:37;;;;;;;14.63;11.32;;;;;;;-5.44;89.28;101295.13;5043266;28;20021;-64
2022/11/27 00:26:04;;;;;;;15.40;10.93;;;;;;;-5.71;90.79;101302.53;5038253;28;20049;-65
2022/11/27 00:28:29;;;;;;;14.30;10.80;;;;;;;-5.61;89.70;101293.97;5022932;28;20034;-63
2022/11/27 00:31:22;;;;;;;15.38;12.23;;;;;;;-5.49;88.89;101294.78;5041632;28;20032;-63
2022/11/27 00:33:48;;;;;;;18.00;12.15;;;;;;;-5.47;89.24;101300.84;5035694;28;20330;-62
2022/11/27 00:36:15;;;;;;;16.23;11.02;;;;;;;-5.45;89.20;101306.84;5023197;28;20033;-64
2022/11/27 00:38:41;;;;;;;15.75;11.45;;;;;;;-5.57;89.92;101306.03;5032799;28;20057;-63
2022/11/27 00:41:13;;;;;;;16.90;11.23;;;;;;;-5.63;90.55;101308.09;5028464;28;20096;-64
2022/11/27 00:43:39;;;;;;;16.33;11.73;;;;;;;-5.74;90.47;101302.31;5033039;28;20088;-63
2022/11/27 00:46:05;;;;;;;16.13;11.05;;;;;;;-5.59;91.66;101307.56;5023102;28;20029;-64
2022/11/27 00:48:31;;;;;;;16.83;12.32;;;;;;;-5.52;90.69;101294.59;5039869;28;20029;-63
2022/11/27 00:50:59;;;;;;;17.10;12.63;;;;;;;-5.48;89.75;101296.56;5039296;28;20025;-64
2022/11/27 00:53:26;;;;;;;17.55;11.57;;;;;;;-5.61;90.57;101281.34;5027532;28;20025;-64
2022/11/27 00:55:51;;;;;;;16.42;11.45;;;;;;;-5.73;91.85;101289.81;5023534;28;20206;-64
2022/11/27 00:58:17;;;;;;;15.05;11.02;;;;;;;-5.71;90.46;101292.44;5025757;28;20028;-64
2022/11/27 01:00:42;;;;;;;16.38;11.27;;;;;;;-5.54;91.22;101293.63;5024691;28;20029;-64
2022/11/27 01:03:08;;;;;;;16.70;12.30;;;;;;;-5.43;90.40;101305.34;5022925;28;20045;-64
2022/11/27 01:05:36;;;;;;;17.35;12.27;;;;;;;-5.32;90.78;101315.28;5031816;28;20029;-64
2022/11/27 01:08:03;;;;;;;14.65;10.13;;;;;;;-5.58;90.37;101305.13;5041587;28;20607;-64
2022/11/27 01:10:29;;;;;;;14.80;11.23;;;;;;;-5.50;90.77;101303.16;5042696;28;20065;-63
2022/11/27 01:12:54;;;;;;;13.75;11.23;;;;;;;-5.76;91.85;101293.75;5022953;28;20092;-64
2022/11/27 01:15:20;;;;;;;17.60;12.45;;;;;;;-5.75;92.70;101296.38;5037809;28;20025;-63
2022/11/27 01:17:45;;;;;;;15.88;11.55;;;;;;;-5.77;91.21;101287.84;5032434;28;20325;-63
2022/11/27 01:20:11;;;;;;;15.63;11.70;;;;;;;-5.69;92.40;101295.06;5027369;28;20029;-63
2022/11/27 01:22:37;;;;;;;15.15;10.38;;;;;;;-5.76;91.72;101281.13;5031304;28;20033;-63
2022/11/27 01:25:03;;;;;;;15.63;11.15;;;;;;;-5.82;92.67;101293.31;5042601;28;20064;-64
2022/11/27 01:27:29;;;;;;;17.05;11.55;;;;;;;-5.59;92.67;101288.22;5026555;28;20382;-64
2022/11/27 01:29:54;;;;;;;14.52;10.00;;;;;;;-5.72;92.75;101296.59;5034307;28;20033;-63
2022/11/27 01:32:20;;;;;;;18.88;11.25;;;;;;;-5.62;92.16;101287.16;5035642;28;20111;-64
2022/11/27 01:34:45;;;;;;;17.35;12.45;;;;;;;-5.58;92.54;101284.94;5024447;28;20036;-64
2022/11/27 01:37:11;;;;;;;18.10;12.60;;;;;;;-5.39;90.91;101284.59;5028826;28;20299;-66
2022/11/27 01:39:36;;;;;;;16.85;11.57;;;;;;;-5.59;92.90;101285.69;5027832;28;20029;-64
2022/11/27 01:42:02;;;;;;;16.80;11.70;;;;;;;-5.66;92.66;101287.72;5038688;28;20225;-64
2022/11/27 01:44:28;;;;;;;16.42;11.45;;;;;;;-5.60;91.47;101290.66;5038505;28;20088;-65
2022/11/27 01:46:56;;;;;;;17.33;12.77;;;;;;;-5.37;91.39;101290.59;5029330;28;20061;-64
2022/11/27 01:49:34;;;;;;;16.63;11.93;;;;;;;-5.48;90.85;101276.38;5046162;28;20034;-64
2022/11/27 01:52:14;;;;;;;17.52;12.70;;;;;;;-5.31;92.03;101284.22;5029609;28;20253;-64
2022/11/27 01:54:42;;;;;;;17.42;12.80;;;;;;;-5.37;91.12;101298.19;5042442;28;20234;-64
2022/11/27 01:57:16;;;;;;;15.77;10.90;;;;;;;-5.62;92.68;101274.53;5039121;28;20040;-64
2022/11/27 01:59:43;;;;;;;15.85;11.82;;;;;;;-5.34;91.29;101287.41;5036344;28;20462;-62
2022/11/27 02:02:09;;;;;;;17.52;11.68;;;;;;;-5.25;90.39;101292.22;5033672;28;20292;-64
2022/11/27 02:04:35;;;;;;;15.85;11.50;;;;;;;-5.35;92.33;101298.28;5026246;28;20028;-64
2022/11/27 02:07:00;;;;;;;16.27;11.40;;;;;;;-5.39;91.64;101303.88;5045596;28;20442;-63
2022/11/27 02:09:28;;;;;;;15.52;10.60;;;;;;;-5.55;92.40;101286.81;5030171;28;20025;-63
2022/11/27 02:12:15;;;;;;;16.45;11.90;;;;;;;-5.35;92.59;101297.41;5026030;28;20045;-63
2022/11/27 02:15:20;;;;;;;17.17;12.35;;;;;;;-5.32;90.98;101295.09;5036547;28;20037;-63
2022/11/27 02:18:03;;;;;;;17.77;11.90;;;;;;;-5.24;92.08;101321.75;5044215;28;20285;-63
2022/11/27 02:20:43;;;;;;;15.73;11.35;;;;;;;-5.27;90.60;101298.81;5045597;28;20029;-64
2022/11/27 02:23:29;;;;;;;16.23;11.65;;;;;;;-5.23;91.83;101299.13;5028714;28;20048;-64
2022/11/27 02:26:22;;;;;;;17.63;11.25;;;;;;;-5.06;91.54;101305.34;5028470;28;20065;-64
2022/11/27 02:29:09;;;;;;;15.10;11.18;;;;;;;-5.15;90.21;101283.63;5043502;28;20040;-63
2022/11/27 02:31:46;;;;;;;15.02;10.52;;;;;;;-5.28;89.23;101309.69;5025629;28;20025;-63
2022/11/27 02:34:39;;;;;;;13.82;9.20;;;;;;;-5.32;89.51;101300.16;5025370;28;20041;-63
2022/11/27 02:37:23;;;;;;;14.55;10.95;;;;;;;-5.26;88.97;101278.72;5025146;28;20030;-64
2022/11/27 02:40:00;;;;;;;12.10;9.38;;;;;;;-5.12;88.72;101306.56;5024271;28;20084;-63
2022/11/27 02:42:31;;;;;;;10.32;8.15;;;;;;;-5.11;88.89;101314.22;5040495;28;20385;-63
2022/11/27 02:45:11;;;;;;;11.98;8.95;;;;;;;-5.12;88.69;101317.53;5033697;28;20056;-63
2022/11/27 02:47:38;;;;;;;10.85;8.82;;;;;;;-4.98;87.74;101292.34;5025132;28;20029;-64
2022/11/27 02:50:09;;;;;;;12.90;8.10;;;;;;;-5.24;87.07;101297.38;5040013;28;20060;-64
2022/11/27 02:52:36;;;;;;;11.23;8.82;;;;;;;-5.14;87.78;101315.69;5034286;28;20385;-63
2022/11/27 02:55:07;;;;;;;10.02;7.63;;;;;;;-5.25;87.50;101325.03;5024954;28;20284;-64
2022/11/27 02:57:35;;;;;;;10.20;7.95;;;;;;;-5.03;87.33;101315.63;5025398;28;20205;-64
2022/11/27 03:00:01;;;;;;;9.30;7.38;;;;;;;-5.18;88.00;101318.78;5036403;28;20297;-63
2022/11/27 03:02:34;;;;;;;9.25;7.63;;;;;;;-5.39;88.88;101288.75;5045086;28;20026;-63
2022/11/27 03:05:03;;;;;;;12.23;7.93;;;;;;;-5.17;87.95;101313.81;5041392;28;20064;-63
2022/11/27 03:07:37;;;;;;;9.00;7.30;;;;;;;-5.08;87.42;101316.09;5025108;28;20029;-63
2022/11/27 03:10:10;;;;;;;11.30;8.25;;;;;;;-5.25;88.12;101313.28;5031977;28;20056;-62
2022/11/27 03:12:36;;;;;;;11.48;8.80;;;;;;;-5.00;87.59;101326.72;5028213;28;20233;-63
2022/11/27 03:15:03;;;;;;;10.55;7.78;;;;;;;-5.01;88.47;101325.84;5024281;28;20126;-63
2022/11/27 03:17:59;;;;;;;9.38;7.13;;;;;;;-5.06;88.96;101320.50;5024861;28;20335;-62
2022/11/27 03:20:30;;;;;;;10.57;8.13;;;;;;;-5.22;87.30;101300.00;5031198;28;20030;-63
2022/11/27 03:22:56;;;;;;;10.27;7.67;;;;;;;-5.16;88.68;101314.69;5031640;28;20022;-62
2022/11/27 03:25:23;;;;;;;10.65;8.02;;;;;;;-5.14;87.63;101328.31;5044402;28;20816;-62
2022/11/27 03:27:59;;;;;;;11.50;8.13;;;;;;;-4.97;87.73;101311.75;5029110;28;20081;-63
2022/11/27 03:30:24;;;;;;;11.68;7.68;;;;;;;-5.12;89.20;101325.09;5027631;28;20101;-62
2022/11/27 03:32:50;;;;;;;9.45;7.65;;;;;;;-5.15;87.48;101332.47;5025132;28;20229;-63
2022/11/27 03:35:20;;;;;;;10.25;7.78;;;;;;;-5.06;87.81;101314.53;5025370;28;20034;-63
2022/11/27 03:37:47;;;;;;;9.60;8.13;;;;;;;-4.89;87.90;101331.75;5025312;28;20033;-62
2022/11/27 03:40:13;;;;;;;9.57;7.60;;;;;;;-4.93;87.63;101321.28;5044027;28;20096;-62
2022/11/27 03:42:51;;;;;;;9.68;7.90;;;;;;;-4.86;87.29;101324.38;5028772;28;20023;-62
2022/11/27 03:45:19;;;;;;;9.43;7.55;;;;;;;-4.81;88.28;101326.31;5024114;28;20061;-63
2022/11/27 03:47:56;;;;;;;9.65;7.53;;;;;;;-5.14;88.33;101300.53;5024652;28;20034;-64
2022/11/27 03:50:37;;;;;;;10.57;7.65;;;;;;;-5.05;88.05;101323.88;5029897;28;20037;-63
2022/11/27 03:53:15;;;;;;;9.38;6.95;;;;;;;-5.16;88.37;101286.91;5031491;28;20057;-63
2022/11/27 03:55:53;;;;;;;9.82;7.45;;;;;;;-4.98;88.78;101322.66;5024104;28;20383;-62
2022/11/27 03:58:37;;;;;;;8.02;7.10;;;;;;;-5.09;88.80;101320.28;5033917;28;20025;-62
2022/11/27 04:01:07;;;;;;;9.48;7.22;;;;;;;-5.22;88.58;101289.91;5023441;28;20044;-64
2022/11/27 04:03:34;;;;;;;11.82;7.60;;;;;;;-4.93;88.03;101311.19;5039099;28;20033;-62
2022/11/27 04:06:01;;;;;;;9.50;7.15;;;;;;;-4.99;89.39;101316.72;5032655;28;20045;-63
2022/11/27 04:08:26;;;;;;;9.73;7.53;;;;;;;-4.99;88.64;101315.84;5028858;28;20190;-62
2022/11/27 04:10:52;;;;;;;10.35;6.53;;;;;;;-5.06;89.86;101301.91;5029466;28;20033;-63
2022/11/27 04:13:18;;;;;;;10.35;7.40;;;;;;;-4.90;89.78;101313.94;5043376;28;20056;-63
2022/11/27 04:15:43;;;;;;;9.05;6.82;;;;;;;-4.97;88.21;101307.59;5026667;28;20049;-64
2022/11/27 04:18:09;;;;;;;10.23;7.43;;;;;;;-5.00;89.28;101311.56;5029715;28;20021;-62
2022/11/27 04:20:34;;;;;;;10.18;7.32;;;;;;;-4.82;88.27;101307.75;5036142;28;20329;-63
2022/11/27 04:23:00;;;;;;;10.63;7.10;;;;;;;-4.83;88.86;101300.06;5026055;28;20034;-63
2022/11/27 04:25:26;;;;;;;12.25;7.47;;;;;;;-4.72;89.12;101312.66;5043464;28;20139;-63
2022/11/27 04:27:51;;;;;;;10.07;7.68;;;;;;;-4.78;88.88;101309.69;5029982;28;20036;-63
2022/11/27 04:30:18;;;;;;;9.30;7.13;;;;;;;-4.64;89.39;101314.81;5037482;28;20108;-62
2022/11/27 04:32:43;;;;;;;9.45;7.13;;;;;;;-4.80;88.90;101306.22;5035012;28;20033;-62
2022/11/27 04:35:10;;;;;;;9.90;7.28;;;;;;;-4.75;89.39;101314.94;5027146;28;20029;-62
2022/11/27 04:37:35;;;;;;;12.02;7.65;;;;;;;-4.60;88.29;101320.16;5043133;28;20225;-62
2022/11/27 04:40:01;;;;;;;9.38;7.07;;;;;;;-4.64;88.25;101318.22;5030936;28;20100;-63
2022/11/27 04:42:27;;;;;;;9.27;6.70;;;;;;;-4.68;88.45;101329.75;5030609;28;20036;-63
2022/11/27 04:44:53;;;;;;;9.77;7.40;;;;;;;-4.69;88.52;101324.59;5033570;28;20042;-64
2022/11/27 04:47:18;;;;;;;8.50;6.95;;;;;;;-4.71;88.40;101313.53;5038094;28;20052;-62
2022/11/27 04:49:44;;;;;;;9.68;7.18;;;;;;;-4.80;89.34;101321.38;5023464;28;20045;-64
2022/11/27 04:52:09;;;;;;;9.05;6.53;;;;;;;-4.70;89.90;101323.72;5035873;28;20021;-64
2022/11/27 04:54:36;;;;;;;9.15;6.97;;;;;;;-4.62;88.64;101318.31;5023291;28;20206;-63
2022/11/27 04:57:02;;;;;;;9.10;6.85;;;;;;;-4.65;89.76;101320.63;5033369;28;20025;-63
2022/11/27 04:59:28;;;;;;;10.30;7.70;;;;;;;-4.59;89.80;101324.47;5030079;28;20030;-63
2022/11/27 05:01:54;;;;;;;10.32;7.70;;;;;;;-4.61;89.92;101323.47;5024556;28;20076;-63
2022/11/27 05:04:21;;;;;;;10.40;7.10;;;;;;;-4.50;90.03;101324.19;5043013;28;20022;-64
2022/11/27 05:06:46;;;;;;;10.85;7.30;;;;;;;-4.57;89.26;101319.50;5026271;28;20030;-63
2022/11/27 05:09:12;;;;;;;10.25;7.15;;;;;;;-4.78;90.45;101337.50;5024693;28;20030;-63
2022/11/27 05:11:38;;;;;;;9.95;7.30;;;;;;;-4.61;89.83;101348.72;5035695;28;20255;-63
2022/11/27 05:14:16;;;;;;;10.32;7.80;;;;;;;-4.70;90.30;101312.75;5027109;28;20050;-63
2022/11/27 05:16:47;;;;;;;10.30;7.35;;;;;;;-4.59;91.25;101310.91;5046497;28;20206;-63
2022/11/27 05:19:14;;;;;;;9.45;7.10;;;;;;;-4.64;91.40;101328.31;5046177;28;20040;-63
2022/11/27 05:21:40;;;;;;;11.18;7.55;;;;;;;-4.78;91.60;101314.75;5031007;28;20365;-63
2022/11/27 05:24:07;;;;;;;11.40;7.82;;;;;;;-4.59;91.93;101329.50;5026675;28;20045;-63
2022/11/27 05:26:33;;;;;;;11.70;8.30;;;;;;;-4.57;91.52;101332.13;5026751;28;20044;-63
2022/11/27 05:28:58;;;;;;;10.98;8.02;;;;;;;-4.56;92.32;101333.88;5027992;28;20183;-64
2022/11/27 05:31:24;;;;;;;11.38;8.45;;;;;;;-4.44;90.71;101337.22;5046652;28;20085;-64
2022/11/27 05:33:50;;;;;;;12.13;7.85;;;;;;;-4.46;91.03;101332.81;5029564;28;20028;-63
2022/11/27 05:36:16;;;;;;;10.20;7.80;;;;;;;-4.43;91.44;101338.97;5038148;28;20540;-63
2022/11/27 05:38:41;;;;;;;10.73;8.15;;;;;;;-4.39;90.38;101343.47;5030400;28;20395;-63
2022/11/27 05:41:07;;;;;;;11.68;7.65;;;;;;;-4.38;89.99;101335.09;5038806;28;20265;-62
2022/11/27 05:43:33;;;;;;;9.70;6.93;;;;;;;-4.39;90.34;101338.41;5026449;28;20344;-63
2022/11/27 05:46:02;;;;;;;10.38;7.72;;;;;;;-4.26;90.80;101346.78;5027991;28;20088;-64
2022/11/27 05:48:28;;;;;;;10.18;7.03;;;;;;;-4.42;90.38;101345.75;5040157;28;20025;-63
2022/11/27 05:50:54;;;;;;;9.68;7.22;;;;;;;-4.33;90.67;101332.88;5045995;28;20213;-63
2022/11/27 05:53:19;;;;;;;11.98;7.85;;;;;;;-4.35;89.91;101347.94;5031919;28;20042;-63
2022/11/27 05:55:45;;;;;;;8.60;7.03;;;;;;;-4.42;89.67;101343.25;5026364;28;20265;-64
2022/11/27 05:58:10;;;;;;;9.80;7.43;;;;;;;-4.31;91.01;101348.16;5026263;28;20026;-63
2022/11/27 06:00:36;;;;;;;10.40;8.18;;;;;;;-4.29;90.55;101349.09;5040967;28;20213;-64
2022/11/27 06:03:02;;;;;;;11.13;7.95;;;;;;;-4.13;89.39;101343.41;5045196;28;20030;-64
2022/11/27 06:05:27;;;;;;;11.32;8.32;;;;;;;-4.11;89.27;101352.84;5039257;28;20089;-63
2022/11/27 06:07:53;;;;;;;10.23;7.70;;;;;;;-4.05;89.15;101353.22;5026420;28;20025;-63
2022/11/27 06:10:19;;;;;;;9.85;7.47;;;;;;;-4.17;90.13;101348.25;5045664;28;20028;-63
2022/11/27 06:12:44;;;;;;;11.02;8.00;;;;;;;-4.12;89.48;101356.13;5029567;28;20050;-63
2022/11/27 06:15:10;;;;;;;9.88;7.10;;;;;;;-4.21;90.09;101347.97;5025552;28;20313;-64
2022/11/27 06:17:36;;;;;;;10.98;7.70;;;;;;;-4.16;89.99;101355.06;5025568;28;20076;-64
2022/11/27 06:20:01;;;;;;;10.93;8.00;;;;;;;-3.92;89.82;101359.97;5025730;28;20053;-65
2022/11/27 06:22:30;;;;;;;11.20;7.45;;;;;;;-4.03;90.24;101361.81;5025906;28;20022;-64
2022/11/27 06:24:55;;;;;;;10.35;7.15;;;;;;;-4.03;89.99;101354.22;5024533;28;20330;-64
2022/11/27 06:27:21;;;;;;;11.32;7.63;;;;;;;-3.93;88.52;101352.25;5037967;28;20037;-64
2022/11/27 06:29:47;;;;;;;10.85;8.00;;;;;;;-3.99;89.56;101358.69;5037612;28;20318;-65
2022/11/27 06:32:13;;;;;;;9.98;7.28;;;;;;;-3.95;90.19;101349.63;5038180;28;20045;-64
2022/11/27 06:34:38;;;;;;;11.45;8.75;;;;;;;-3.94;89.22;101356.47;5024501;28;20040;-64
2022/11/27 06:37:04;;;;;;;9.93;7.43;;;;;;;-3.84;89.18;101352.88;5030137;28;20033;-64
2022/11/27 06:39:29;;;;;;;11.10;7.47;;;;;;;-3.85;89.68;101351.09;5038844;28;20053;-65
2022/11/27 06:41:55;;;;;;;10.55;7.78;;;;;;;-3.97;89.01;101360.47;5044171;28;20056;-64
2022/11/27 06:44:21;;;;;;;10.23;7.40;;;;;;;-3.77;89.25;101344.03;5045248;28;20037;-63
2022/11/27 06:46:46;;;;;;;10.38;7.10;;;;;;;-3.81;89.27;101358.13;5044104;28;20068;-64
2022/11/27 06:49:12;;;;;;;11.63;7.70;;;;;;;-3.85;88.76;101357.06;5025677;28;20061;-64
2022/11/27 06:51:38;;;;;;;10.65;7.38;;;;;;;-3.89;89.37;101355.13;5037969;28;20025;-65
2022/11/27 06:54:03;;;;;;;8.60;6.68;;;;;;;-3.85;88.83;101351.09;5024905;28;20100;-65
2022/11/27 06:56:30;;;;;;;9.40;7.25;;;;;;;-3.59;89.24;101374.66;5029997;28;20049;-65
2022/11/27 06:59:00;;;;;;;9.07;7.20;;;;;;;-3.57;88.06;101342.75;5044649;28;20128;-65
2022/11/27 07:01:29;;;;;;;10.00;7.63;;;;;;;-3.42;88.09;101361.44;5044615;28;20022;-65
2022/11/27 07:03:55;;;;;;;11.52;7.13;;;;;;;-3.53;88.08;101364.94;5027790;28;20191;-64
2022/11/27 07:06:23;;;;;;;10.15;7.53;;;;;;;-3.53;88.75;101350.63;5029770;28;20022;-64
2022/11/27 07:08:49;;;;;;;8.48;6.65;;;;;;;-3.37;87.74;101359.19;5032278;28;20035;-65
2022/11/27 07:11:20;;;;;;;10.10;6.90;;;;;;;-3.34;87.64;101372.88;5030013;28;20052;-66
2022/11/27 07:13:47;;;;;;;10.45;7.15;;;;;;;-3.38;88.33;101365.00;5044480;28;20205;-64
2022/11/27 07:16:13;;;;;;;12.75;7.65;;;;;;;-3.24;87.92;101374.34;5025165;28;20302;-65
2022/11/27 07:18:45;;;;;;;9.45;7.28;;;;;;;-3.50;87.93;101344.88;5038634;28;20293;-65
2022/11/27 07:21:10;;;;;;;;;;;;;;;-3.42;88.28;101369.03;5034627;28;20030;-65
2022/11/27 07:23:36;;;;;;;11.20;7.57;;;;;;;-3.42;88.35;101368.13;5038258;28;20173;-66
2022/11/27 07:26:07;;;;;;;8.68;6.95;;;;;;;-3.39;88.78;101365.78;5042689;28;20258;-64
2022/11/27 07:28:33;;;;;;;10.55;7.50;;;;;;;-3.37;88.68;101362.56;5024511;28;20022;-65
2022/11/27 07:30:59;;;;;;;8.18;6.03;;;;;;;-3.45;88.71;101361.22;5024092;28;20249;-64
2022/11/27 07:33:25;;;;;;;10.40;7.82;;;;;;;-3.35;88.85;101365.19;5025781;28;20022;-64
2022/11/27 07:36:19;;;;;;;10.50;6.97;;;;;;;-3.22;88.75;101342.41;5031747;28;20317;-65
2022/11/27 07:38:45;;;;;;;10.20;7.28;;;;;;;-3.30;89.03;101343.56;5043226;28;20363;-66
2022/11/27 07:41:12;;;;;;;10.20;7.63;;;;;;;-3.13;88.97;101342.94;5039308;28;20037;-64
2022/11/27 07:43:38;;;;;;;11.57;7.68;;;;;;;-3.25;88.72;101329.53;5024277;28;20057;-64
2022/11/27 07:46:05;;;;;;;9.73;7.30;;;;;;;-3.20;88.86;101352.63;5041609;28;20099;-65
2022/11/27 07:48:31;;;;;;;10.80;7.72;;;;;;;-3.16;89.57;101354.56;5030862;28;20026;-65
2022/11/27 07:50:57;;;;;;;9.43;7.15;;;;;;;-3.13;90.08;101347.16;5031005;28;20097;-63
2022/11/27 07:53:23;;;;;;;10.23;7.40;;;;;;;-3.20;90.10;101356.00;5029141;28;20033;-63
2022/11/27 07:55:48;;;;;;;11.20;7.63;;;;;;;-3.06;89.80;101349.25;5024167;28;20021;-65
2022/11/27 07:58:14;;;;;;;7.97;6.55;;;;;;;-3.16;90.28;101359.63;5042726;28;20025;-67
2022/11/27 08:00:40;;;;;;;9.73;7.13;;;;;;;-3.15;90.51;101348.69;5029510;28;20053;-65
2022/11/27 08:03:05;;;;;;;11.70;7.10;;;;;;;-3.14;90.42;101350.44;5032831;28;20021;-63
2022/11/27 08:05:36;;;;;;;10.90;7.38;;;;;;;-2.96;90.47;101348.16;5043703;28;20309;-65
2022/11/27 08:08:03;;;;;;;9.45;6.47;;;;;;;-3.09;90.40;101350.72;5042811;28;20021;-65
2022/11/27 08:10:36;;;;;;;10.77;7.43;;;;;;;-2.96;90.21;101338.91;5023586;28;20060;-64
2022/11/27 08:13:02;;;;;;;10.23;7.68;;;;;;;-2.82;89.76;101333.75;5027311;28;20148;-65
2022/11/27 08:15:28;;;;;;;11.73;8.02;;;;;;;-2.75;89.39;101352.75;5036063;28;20037;-64
2022/11/27 08:17:55;;;;;;;10.07;7.38;;;;;;;-2.73;88.99;101353.75;5035591;28;20112;-65
2022/11/27 08:20:20;;;;;;;9.68;7.60;;;;;;;-2.68;89.38;101347.25;5026780;28;20325;-64
2022/11/27 08:22:46;;;;;;;9.73;7.40;;;;;;;-2.61;88.75;101355.34;5029712;28;20092;-65
2022/11/27 08:25:12;;;;;;;10.40;7.10;;;;;;;-2.65;88.75;101345.81;5042054;28;20021;-65
2022/11/27 08:27:38;;;;;;;10.05;7.78;;;;;;;-2.57;89.05;101346.25;5029712;28;20068;-65
2022/11/27 08:30:05;;;;;;;10.63;7.80;;;;;;;-2.34;88.38;101349.25;5031460;28;20037;-65
2022/11/27 08:32:31;;;;;;;9.50;7.53;;;;;;;-2.61;88.53;101327.44;5023478;28;20314;-64
2022/11/27 08:34:57;;;;;;;9.57;6.75;;;;;;;-2.51;88.42;101341.53;5023258;28;20045;-64
2022/11/27 08:37:22;;;;;;;9.75;7.43;;;;;;;-2.36;88.28;101338.16;5043227;28;20345;-66
2022/11/27 08:39:48;;;;;;;10.52;8.02;;;;;;;-2.29;88.65;101346.19;5041925;28;20017;-65
2022/11/27 08:42:13;;;;;;;11.50;7.70;;;;;;;-2.31;87.85;101354.50;5043153;28;20032;-65
2022/11/27 08:44:39;;;;;;;10.77;7.80;;;;;;;-2.31;87.97;101344.34;5036780;28;20073;-65
2022/11/27 08:47:05;;;;;;;9.38;7.30;;;;;;;-2.41;88.08;101339.53;5022882;28;20021;-65
2022/11/27 08:49:30;;;;;;;10.77;7.35;;;;;;;-2.35;87.81;101348.38;5021335;28;20030;-65
2022/11/27 08:51:56;;;;;;;10.77;7.18;;;;;;;-2.18;86.95;101346.81;5036179;28;20045;-64
2022/11/27 08:54:22;;;;;;;9.85;7.85;;;;;;;-2.28;87.63;101350.47;5023203;28;20222;-65
2022/11/27 08:56:47;;;;;;;9.32;6.82;;;;;;;-2.42;88.36;101348.81;5029633;28;20094;-65
2022/11/27 08:59:13;;;;;;;12.05;7.57;;;;;;;-2.30;88.71;101343.56;5042706;28;20026;-65
2022/11/27 09:01:38;;;;;;;12.75;7.30;;;;;;;-2.46;88.75;101346.88;5042760;28;20029;-65
2022/11/27 09:04:04;;;;;;;9.00;7.10;;;;;;;-2.39;88.21;101351.53;5025662;28;20411;-64
2022/11/27 09:06:33;;;;;;;8.95;6.63;;;;;;;-2.45;88.53;101326.66;5022926;28;20033;-64
2022/11/27 09:09:00;;;;;;;7.43;6.28;;;;;;;-2.26;88.37;101342.94;5030596;28;20247;-64
2022/11/27 09:11:27;;;;;;;9.25;6.88;;;;;;;-2.26;88.81;101348.03;5027227;28;20029;-65
2022/11/27 09:13:53;;;;;;;10.90;7.50;;;;;;;-2.11;87.95;101348.00;5042508;28;20364;-65
2022/11/27 09:16:21;;;;;;;10.00;6.88;;;;;;;-2.30;87.60;101333.41;5023677;28;20030;-64
2022/11/27 09:18:49;;;;;;;10.35;7.05;;;;;;;-2.01;87.28;101350.31;5022942;28;20045;-64
2022/11/27 09:21:16;;;;;;;9.55;7.07;;;;;;;-2.34;87.76;101328.94;5031417;28;20047;-64
2022/11/27 09:23:42;;;;;;;9.98;6.72;;;;;;;-2.17;87.95;101342.59;5028275;28;20096;-64
2022/11/27 09:26:10;;;;;;;9.35;6.93;;;;;;;-2.10;87.76;101359.94;5027599;28;20017;-65
2022/11/27 09:28:37;;;;;;;11.02;7.05;;;;;;;-2.08;87.78;101350.75;5042906;28;20110;-64
2022/11/27 09:31:05;;;;;;;13.60;7.43;;;;;;;-1.98;87.38;101349.59;5025753;28;20213;-64
2022/11/27 09:33:33;;;;;;;12.70;8.30;;;;;;;-2.11;87.50;101328.59;5022580;28;20022;-65
2022/11/27 09:36:04;;;;;;;9.88;7.18;;;;;;;-2.09;87.39;101349.00;5026949;28;20042;-67
2022/11/27 09:38:30;;;;;;;11.88;7.95;;;;;;;-2.02;87.33;101340.94;5022612;28;20026;-64
2022/11/27 09:41:21;;;;;;;12.73;7.95;;;;;;;-1.92;87.11;101332.19;5022523;28;20093;-64
2022/11/27 09:44:01;;;;;;;11.68;7.93;;;;;;;-1.85;86.87;101344.44;5040075;28;20219;-65
2022/11/27 09:46:39;;;;;;;11.13;7.90;;;;;;;-1.84;86.75;101338.56;5042161;28;20018;-64
2022/11/27 09:49:08;;;;;;;13.45;7.72;;;;;;;-1.91;86.25;101337.34;5042036;28;20040;-64
2022/11/27 09:51:46;;;;;;;9.48;7.57;;;;;;;-1.86;87.17;101334.19;5030015;28;20038;-64
2022/11/27 09:54:27;;;;;;;11.63;8.73;;;;;;;-1.77;86.37;101337.22;5022435;28;20041;-64
2022/11/27 09:56:54;;;;;;;12.07;7.63;;;;;;;-2.06;87.64;101351.69;5029338;28;20025;-65
2022/11/27 09:59:24;;;;;;;13.10;8.63;;;;;;;-2.05;87.16;101358.53;5043212;28;20068;-64
2022/11/27 10:01:50;;;;;;;12.27;8.88;;;;;;;-2.08;87.39;101359.22;5045989;28;20133;-66
2022/11/27 10:04:18;;;;;;;10.43;8.00;;;;;;;-2.08;87.74;101376.13;5045778;28;20105;-65
2022/11/27 10:06:59;;;;;;;11.52;8.38;;;;;;;-2.24;87.25;101354.06;5032060;28;20030;-66
2022/11/27 10:09:32;;;;;;;12.80;9.75;;;;;;;-2.19;88.24;101349.25;5026144;28;20033;-64
2022/11/27 10:12:28;;;;;;;11.93;9.43;;;;;;;-2.10;87.32;101354.84;5033119;28;20025;-64
2022/11/27 10:15:20;;;;;;;12.20;9.00;;;;;;;-2.21;87.93;101339.00;5035495;28;20041;-64
2022/11/27 10:17:51;;;;;;;;;;;;;;;-2.23;88.08;101355.81;5046147;28;20124;-64
2022/11/27 10:20:58;;;;;;;14.80;9.65;;;;;;;-2.19;87.90;101369.56;5043819;28;19928;-66
2022/11/27 10:23:29;;;;;;;13.43;9.55;;;;;;;-2.18;88.37;101348.44;5043368;28;20056;-65
2022/11/27 10:26:00;;;;;;;;;;;;;;;-2.26;87.56;101348.91;5046236;28;20096;-65
2022/11/27 10:28:35;;;;;;;12.60;9.05;;;;;;;-2.27;89.20;101359.84;5026395;28;20033;-66
2022/11/27 10:31:07;;;;;;;12.75;9.27;;;;;;;-2.18;87.64;101354.44;5040901;28;20091;-66
2022/11/27 10:33:37;;;;;;;;;;;;;;;-2.16;87.77;101355.38;5033872;28;20037;-64
2022/11/27 10:36:04;;;;;;;14.35;9.05;;;;;;;-2.34;87.96;101364.47;5033066;28;20201;-64
2022/11/27 10:38:34;;;;;;;12.85;9.70;;;;;;;-2.31;88.18;101344.34;5042243;28;20314;-64
2022/11/27 10:41:23;;;;;;;13.93;9.68;;;;;;;-2.30;88.35;101353.72;5027083;28;20045;-65
2022/11/27 10:43:54;;;;;;;13.20;9.98;;;;;;;-2.34;88.33;101329.81;5044375;28;20092;-63
2022/11/27 10:46:32;;;;;;;13.18;9.30;;;;;;;-2.40;88.73;101346.38;5034983;28;20096;-67
2022/11/27 10:48:58;;;;;;;13.77;9.32;;;;;;;-2.23;88.64;101347.34;5040457;28;20089;-66
2022/11/27 10:51:29;;;;;;;12.57;9.68;;;;;;;-2.62;88.22;101315.53;5025138;28;20309;-66
2022/11/27 10:53:58;;;;;;;15.45;10.27;;;;;;;-2.28;88.46;101368.25;5043092;28;20301;-66
2022/11/27 10:56:55;;;;;;;13.65;9.48;;;;;;;-2.50;88.63;101355.09;5042841;28;20018;-67
2022/11/27 10:59:26;;;;;;;14.07;10.52;;;;;;;-2.35;88.57;101335.69;5035127;28;20092;-66
2022/11/27 11:01:52;;;;;;;12.95;9.77;;;;;;;-2.52;88.70;101329.63;5025134;28;20022;-67
2022/11/27 11:04:29;;;;;;;14.27;9.75;;;;;;;-2.44;88.97;101363.94;5025474;28;20054;-67
2022/11/27 11:06:56;;;;;;;14.50;10.40;;;;;;;-2.40;88.95;101356.50;5039340;28;20041;-63
2022/11/27 11:09:33;;;;;;;14.90;10.45;;;;;;;-2.21;88.63;101360.97;5034525;28;20257;-64
2022/11/27 11:12:17;;;;;;;14.05;9.75;;;;;;;-2.32;88.48;101352.75;5006562;28;20048;-64
2022/11/27 11:14:57;;;;;;;14.75;10.05;;;;;;;-2.44;88.36;101336.03;5028096;28;20336;-65
2022/11/27 11:17:33;;;;;;;14.82;10.13;;;;;;;-2.51;88.26;101343.19;5034648;28;20105;-64
2022/11/27 11:19:59;;;;;;;14.82;10.40;;;;;;;-2.43;88.82;101345.38;5024633;28;20021;-67
2022/11/27 11:22:27;;;;;;;13.55;8.50;;;;;;;-2.59;88.87;101373.19;5041971;28;20318;-69
2022/11/27 11:24:54;;;;;;;15.65;10.80;;;;;;;-2.34;88.75;101377.16;5044508;28;20111;-64
2022/11/27 11:27:24;;;;;;;13.05;9.60;;;;;;;-2.50;88.24;101352.56;5039877;28;20113;-67
2022/11/27 11:30:23;;;;;;;12.30;9.02;;;;;;;-2.47;88.63;101368.81;5029942;28;20236;-65